Time;durP1;ratioP1;P1;durP2;ratioP2;P2;SDS_P1;SDS_P2;PMS_P1;PMS_P2;Temp;Humidity;BMP_temperature;BMP_pressure;BME280_temperature;BME280_humidity;BME280_pressure;Samples;Min_cycle;Max_cycle;Signal;HPM_P1;HPM_P2
2021/03/13 00:00:10;;;;;;;26.92;4.57;;;;;;;;;;4971636;28;20042;-58
2021/03/13 00:02:35;;;;;;;24.00;4.18;;;;;;;;;;4968508;28;20077;-57
2021/03/13 00:05:04;;;;;;;29.13;3.42;;;;;;;;;;4965849;28;20034;-59
2021/03/13 00:07:29;;;;;;;38.60;3.90;;;;;;;;;;4968453;28;20074;-58
2021/03/13 00:09:57;;;;;;;33.28;4.10;;;;;;;;;;4973504;28;20034;-59
2021/03/13 00:12:25;;;;;;;19.02;3.13;;;;;;;;;;4982975;28;20090;-58
2021/03/13 00:14:52;;;;;;;20.90;2.70;;;;;;;;;;4967478;28;20922;-58
2021/03/13 00:17:18;;;;;;;35.08;3.70;;;;;;;;;;4956668;28;20042;-59
2021/03/13 00:19:48;;;;;;;17.92;3.85;;;;;;;;;;4984133;28;20049;-57
2021/03/13 00:22:13;;;;;;;17.60;3.45;;;;;;;;;;4982722;28;20635;-60
2021/03/13 00:24:42;;;;;;;16.83;3.53;;;;;;;;;;4972083;28;20152;-59
2021/03/13 00:27:12;;;;;;;24.23;4.18;;;;;;;;;;4982611;28;20068;-58
2021/03/13 00:29:38;;;;;;;20.35;2.40;;;;;;;;;;4968365;28;20121;-58
2021/03/13 00:32:06;;;;;;;22.02;3.28;;;;;;;;;;4998373;28;20042;-59
2021/03/13 00:34:34;;;;;;;33.63;2.55;;;;;;;;;;4960298;28;20046;-59
2021/03/13 00:37:02;;;;;;;22.35;3.17;;;;;;;;;;4984289;28;20124;-59
2021/03/13 00:39:29;;;;;;;16.52;3.05;;;;;;;;;;4985946;28;20481;-59
2021/03/13 00:41:57;;;;;;;30.45;3.05;;;;;;;;;;4985241;28;20033;-58
2021/03/13 00:44:25;;;;;;;28.88;3.60;;;;;;;;;;4988761;28;20034;-60
2021/03/13 00:46:53;;;;;;;29.80;3.83;;;;;;;;;;5000473;28;20096;-58
2021/03/13 00:49:21;;;;;;;32.55;3.38;;;;;;;;;;4966279;28;20033;-57
2021/03/13 00:51:51;;;;;;;27.33;3.38;;;;;;;;;;4982414;28;20034;-58
2021/03/13 00:54:19;;;;;;;30.75;2.72;;;;;;;;;;4985415;28;20029;-58
2021/03/13 00:56:47;;;;;;;37.45;3.85;;;;;;;;;;5000832;28;20037;-57
2021/03/13 00:59:13;;;;;;;19.40;2.85;;;;;;;;;;4983973;28;20038;-61
2021/03/13 01:01:41;;;;;;;9.93;2.58;;;;;;;;;;4984536;28;20061;-60
2021/03/13 01:04:13;;;;;;;20.33;2.22;;;;;;;;;;4984986;28;20064;-56
2021/03/13 01:06:41;;;;;;;30.23;3.28;;;;;;;;;;4999776;28;20065;-57
2021/03/13 01:09:06;;;;;;;13.63;2.38;;;;;;;;;;4972050;28;20034;-57
2021/03/13 01:11:34;;;;;;;26.33;3.38;;;;;;;;;;4982109;28;20771;-57
2021/03/13 01:14:00;;;;;;;28.75;2.90;;;;;;;;;;4969145;28;20168;-57
2021/03/13 01:16:27;;;;;;;8.80;2.05;;;;;;;;;;4984765;28;20104;-57
2021/03/13 01:18:53;;;;;;;20.60;2.38;;;;;;;;;;4980473;28;20045;-57
2021/03/13 01:21:20;;;;;;;21.17;2.85;;;;;;;;;;4983228;28;20504;-57
2021/03/13 01:23:50;;;;;;;14.85;2.70;;;;;;;;;;4971333;28;20077;-56
2021/03/13 01:26:16;;;;;;;23.08;2.92;;;;;;;;;;4967972;28;20141;-57
2021/03/13 01:28:41;;;;;;;17.73;2.67;;;;;;;;;;4966699;28;20036;-57
2021/03/13 01:31:09;;;;;;;21.52;2.42;;;;;;;;;;4997859;28;20465;-57
2021/03/13 01:33:38;;;;;;;12.50;2.63;;;;;;;;;;4984232;28;20034;-57
2021/03/13 01:36:06;;;;;;;28.23;3.53;;;;;;;;;;4988911;28;20046;-58
2021/03/13 01:38:31;;;;;;;30.08;2.95;;;;;;;;;;4983540;28;20138;-58
2021/03/13 01:40:57;;;;;;;23.92;3.72;;;;;;;;;;4966425;28;20687;-57
2021/03/13 01:43:22;;;;;;;20.20;3.38;;;;;;;;;;4973392;28;20084;-57
2021/03/13 01:45:50;;;;;;;27.38;4.65;;;;;;;;;;4972442;28;21276;-57
2021/03/13 01:48:18;;;;;;;24.38;4.15;;;;;;;;;;4972106;28;20045;-57
2021/03/13 01:50:43;;;;;;;16.27;3.33;;;;;;;;;;4983614;28;20041;-56
2021/03/13 01:53:14;;;;;;;28.80;3.95;;;;;;;;;;4991575;28;20912;-56
2021/03/13 01:55:44;;;;;;;30.45;5.03;;;;;;;;;;4985474;28;20149;-57
2021/03/13 01:58:12;;;;;;;14.35;3.75;;;;;;;;;;4990733;28;20097;-58
2021/03/13 02:00:40;;;;;;;28.50;4.70;;;;;;;;;;4968098;28;20076;-59
2021/03/13 02:03:08;;;;;;;30.63;5.35;;;;;;;;;;4966566;28;20113;-57
2021/03/13 02:05:44;;;;;;;26.38;5.60;;;;;;;;;;4990223;28;20049;-57
2021/03/13 02:08:30;;;;;;;24.77;4.85;;;;;;;;;;4987892;28;20025;-57
2021/03/13 02:11:02;;;;;;;35.50;6.53;;;;;;;;;;4955987;28;20099;-58
2021/03/13 02:13:27;;;;;;;40.35;7.15;;;;;;;;;;4991471;28;20026;-58
2021/03/13 02:16:14;;;;;;;24.90;7.68;;;;;;;;;;4973070;28;20923;-56
2021/03/13 02:18:48;;;;;;;39.63;6.25;;;;;;;;;;4992072;28;20045;-57
2021/03/13 02:21:24;;;;;;;29.08;5.82;;;;;;;;;;4987728;28;20072;-57
2021/03/13 02:24:01;;;;;;;28.85;6.05;;;;;;;;;;4989993;28;20038;-57
2021/03/13 02:26:29;;;;;;;43.10;6.57;;;;;;;;;;4988644;28;20041;-57
2021/03/13 02:28:56;;;;;;;27.30;6.10;;;;;;;;;;4990816;28;20037;-57
2021/03/13 02:31:23;;;;;;;43.65;6.28;;;;;;;;;;4976851;28;20088;-57
2021/03/13 02:33:55;;;;;;;28.88;6.40;;;;;;;;;;4988858;28;20121;-59
2021/03/13 02:36:23;;;;;;;28.30;6.13;;;;;;;;;;5008102;28;20029;-57
2021/03/13 02:39:18;;;;;;;32.15;6.22;;;;;;;;;;4991585;28;20053;-57
2021/03/13 02:41:46;;;;;;;31.85;5.53;;;;;;;;;;5002728;28;20350;-57
2021/03/13 02:44:13;;;;;;;42.63;6.55;;;;;;;;;;5001982;28;20370;-58
2021/03/13 02:46:42;;;;;;;32.95;5.97;;;;;;;;;;5004622;28;20563;-59
2021/03/13 02:49:13;;;;;;;35.03;6.85;;;;;;;;;;5000736;28;20108;-58
2021/03/13 02:51:40;;;;;;;40.13;6.15;;;;;;;;;;4992676;28;20544;-58
2021/03/13 02:54:08;;;;;;;36.15;5.93;;;;;;;;;;5009386;28;20200;-58
2021/03/13 02:56:37;;;;;;;25.73;6.13;;;;;;;;;;5007440;28;20137;-58
2021/03/13 02:59:11;;;;;;;31.70;5.93;;;;;;;;;;4989216;28;20040;-58
2021/03/13 03:01:40;;;;;;;24.65;6.53;;;;;;;;;;5007784;28;20080;-57
2021/03/13 03:04:06;;;;;;;29.90;5.65;;;;;;;;;;5001532;28;20037;-57
2021/03/13 03:06:38;;;;;;;25.63;6.30;;;;;;;;;;4973666;28;20026;-57
2021/03/13 03:09:07;;;;;;;25.02;6.38;;;;;;;;;;5005574;28;20433;-57
2021/03/13 03:11:33;;;;;;;19.83;5.50;;;;;;;;;;5009218;28;20037;-57
2021/03/13 03:14:03;;;;;;;28.60;5.28;;;;;;;;;;5013188;28;20047;-57
2021/03/13 03:16:31;;;;;;;32.47;6.20;;;;;;;;;;4996433;28;20034;-57
2021/03/13 03:19:01;;;;;;;28.30;5.40;;;;;;;;;;5029209;28;20084;-58
2021/03/13 03:21:27;;;;;;;26.40;6.68;;;;;;;;;;4994693;28;20116;-57
2021/03/13 03:23:57;;;;;;;24.38;5.45;;;;;;;;;;4999512;28;20025;-57
2021/03/13 03:26:25;;;;;;;20.55;4.97;;;;;;;;;;4959605;28;20026;-57
2021/03/13 03:28:55;;;;;;;29.00;4.88;;;;;;;;;;4991793;28;20053;-55
2021/03/13 03:31:21;;;;;;;27.80;5.80;;;;;;;;;;4976887;28;20033;-57
2021/03/13 03:33:52;;;;;;;16.38;4.75;;;;;;;;;;5010924;28;20647;-57
2021/03/13 03:39:30;;;;;;;23.92;5.07;;;;;;;;;;4928201;28;20110;-58
2021/03/13 03:42:01;;;;;;;25.92;5.72;;;;;;;;;;4923325;28;20219;-57
2021/03/13 03:44:33;;;;;;;18.35;4.60;;;;;;;;;;4936941;28;20042;-57
2021/03/13 03:47:01;;;;;;;19.50;5.00;;;;;;;;;;4934398;28;20145;-57
2021/03/13 03:49:31;;;;;;;20.33;6.20;;;;;;;;;;4937506;28;20632;-58
2021/03/13 03:51:57;;;;;;;25.08;5.50;;;;;;;;;;4936596;28;20035;-58
2021/03/13 03:54:26;;;;;;;22.15;5.50;;;;;;;;;;4931514;28;20043;-58
2021/03/13 03:56:53;;;;;;;20.05;5.95;;;;;;;;;;4936526;28;20125;-57
2021/03/13 03:59:19;;;;;;;20.75;6.20;;;;;;;;;;4934212;28;20043;-58
2021/03/13 04:01:46;;;;;;;18.38;4.70;;;;;;;;;;4933191;28;20038;-58
2021/03/13 04:04:12;;;;;;;23.08;5.63;;;;;;;;;;4939938;28;20042;-58
2021/03/13 04:06:48;;;;;;;18.42;5.43;;;;;;;;;;4916025;28;20050;-58
2021/03/13 04:09:14;;;;;;;24.75;4.60;;;;;;;;;;4936306;28;20250;-58
2021/03/13 04:11:42;;;;;;;19.95;4.38;;;;;;;;;;4934830;28;20039;-58
2021/03/13 04:14:08;;;;;;;18.77;4.30;;;;;;;;;;4933631;28;20101;-58
2021/03/13 04:16:36;;;;;;;16.55;3.80;;;;;;;;;;4934945;28;20108;-58
2021/03/13 04:19:04;;;;;;;7.30;2.80;;;;;;;;;;4919038;28;20039;-58
2021/03/13 04:21:30;;;;;;;6.70;2.70;;;;;;;;;;4918838;28;20030;-58
2021/03/13 04:23:57;;;;;;;6.70;2.70;;;;;;;;;;4933056;28;20035;-58
2021/03/13 04:26:23;;;;;;;8.25;3.05;;;;;;;;;;4918159;28;20039;-58
2021/03/13 04:28:51;;;;;;;6.28;2.55;;;;;;;;;;4915612;28;20383;-59
2021/03/13 04:31:19;;;;;;;8.07;2.58;;;;;;;;;;4913877;28;20218;-58
2021/03/13 04:33:45;;;;;;;9.82;3.15;;;;;;;;;;4930919;28;20115;-58
2021/03/13 04:36:13;;;;;;;6.95;2.38;;;;;;;;;;4933015;28;22094;-56
2021/03/13 04:38:39;;;;;;;6.07;2.88;;;;;;;;;;4935445;28;20134;-61
2021/03/13 04:41:07;;;;;;;9.50;2.92;;;;;;;;;;4930544;28;20031;-56
2021/03/13 04:43:33;;;;;;;7.10;3.03;;;;;;;;;;4932012;28;20982;-57
2021/03/13 04:46:02;;;;;;;7.63;2.80;;;;;;;;;;4933536;28;20513;-58
2021/03/13 04:48:32;;;;;;;4.63;2.58;;;;;;;;;;4932290;28;20426;-57
2021/03/13 04:51:01;;;;;;;3.75;2.28;;;;;;;;;;4929378;28;20050;-58
2021/03/13 04:53:29;;;;;;;6.55;2.47;;;;;;;;;;4934352;28;20035;-57
2021/03/13 04:55:55;;;;;;;4.75;2.08;;;;;;;;;;4930693;28;20126;-58
2021/03/13 04:58:21;;;;;;;3.15;1.92;;;;;;;;;;4932482;28;20033;-57
2021/03/13 05:00:47;;;;;;;3.28;1.90;;;;;;;;;;4934964;28;20023;-57
2021/03/13 05:03:15;;;;;;;7.35;2.22;;;;;;;;;;4908636;28;20098;-59
2021/03/13 05:05:43;;;;;;;6.95;2.13;;;;;;;;;;4930469;28;20027;-57
2021/03/13 05:08:19;;;;;;;5.68;2.30;;;;;;;;;;4931219;28;20058;-58
2021/03/13 05:10:47;;;;;;;5.15;2.13;;;;;;;;;;4913029;28;20090;-58
2021/03/13 05:13:12;;;;;;;5.47;2.63;;;;;;;;;;4915499;28;21035;-58
2021/03/13 05:15:42;;;;;;;5.47;2.35;;;;;;;;;;4914114;28;20319;-58
2021/03/13 05:18:10;;;;;;;4.65;3.08;;;;;;;;;;4934754;28;20074;-58
2021/03/13 05:20:38;;;;;;;3.75;2.25;;;;;;;;;;4931230;28;20112;-59
2021/03/13 05:23:04;;;;;;;5.57;3.20;;;;;;;;;;4914592;28;20049;-58
2021/03/13 05:25:29;;;;;;;4.20;2.63;;;;;;;;;;4912667;28;20036;-58
2021/03/13 05:27:57;;;;;;;10.88;3.20;;;;;;;;;;4915765;28;21014;-59
2021/03/13 05:30:22;;;;;;;5.53;2.88;;;;;;;;;;4915509;28;20067;-59
2021/03/13 05:32:50;;;;;;;11.52;2.95;;;;;;;;;;4929236;28;20046;-59
2021/03/13 05:35:16;;;;;;;4.45;2.80;;;;;;;;;;4931173;28;20090;-58
2021/03/13 05:37:44;;;;;;;5.72;3.15;;;;;;;;;;4933947;28;20146;-58
2021/03/13 05:40:12;;;;;;;6.80;3.22;;;;;;;;;;4909855;28;20057;-59
2021/03/13 05:42:41;;;;;;;7.65;3.08;;;;;;;;;;4932847;28;20031;-58
2021/03/13 05:45:07;;;;;;;7.10;2.80;;;;;;;;;;4925994;28;20056;-56
2021/03/13 05:47:36;;;;;;;10.77;3.20;;;;;;;;;;4928330;28;20023;-57
2021/03/13 05:50:11;;;;;;;4.05;3.00;;;;;;;;;;4915643;28;20098;-58
2021/03/13 05:52:37;;;;;;;7.80;2.47;;;;;;;;;;4928619;28;20037;-58
2021/03/13 05:55:07;;;;;;;6.28;2.78;;;;;;;;;;4910766;28;20066;-57
2021/03/13 05:57:33;;;;;;;5.05;3.13;;;;;;;;;;4930750;28;20042;-57
2021/03/13 05:59:59;;;;;;;6.00;2.75;;;;;;;;;;4932333;28;20085;-57
2021/03/13 06:02:25;;;;;;;5.82;2.85;;;;;;;;;;4932998;28;20081;-57
2021/03/13 06:04:51;;;;;;;3.78;2.95;;;;;;;;;;4896218;28;20977;-58
2021/03/13 06:07:25;;;;;;;3.53;2.45;;;;;;;;;;4913914;28;20062;-57
2021/03/13 06:09:51;;;;;;;8.30;3.20;;;;;;;;;;4929648;28;20046;-57
2021/03/13 06:12:18;;;;;;;7.47;2.60;;;;;;;;;;4932743;28;20106;-57
2021/03/13 06:14:45;;;;;;;4.57;2.63;;;;;;;;;;4927768;28;20045;-56
2021/03/13 06:17:11;;;;;;;10.50;2.63;;;;;;;;;;4931094;28;20027;-57
2021/03/13 06:20:03;;;;;;;7.63;3.17;;;;;;;;;;4931128;28;20234;-57
2021/03/13 06:22:43;;;;;;;5.65;2.90;;;;;;;;;;4928985;28;20050;-60
2021/03/13 06:25:14;;;;;;;4.10;2.42;;;;;;;;;;4928893;28;20031;-58
2021/03/13 06:27:40;;;;;;;2.85;2.22;;;;;;;;;;4930133;28;21018;-58
2021/03/13 06:30:10;;;;;;;6.30;2.83;;;;;;;;;;4929445;28;20039;-58
2021/03/13 06:32:36;;;;;;;6.72;2.47;;;;;;;;;;4930602;28;20772;-57
2021/03/13 06:35:23;;;;;;;2.75;2.00;;;;;;;;;;4927691;28;20050;-59
2021/03/13 06:37:52;;;;;;;2.92;2.10;;;;;;;;;;4917141;28;20045;-59
2021/03/13 06:40:36;;;;;;;9.55;2.78;;;;;;;;;;4929987;28;20644;-59
2021/03/13 06:43:22;;;;;;;2.95;2.45;;;;;;;;;;4932263;28;20034;-57
2021/03/13 06:46:00;;;;;;;4.45;1.77;;;;;;;;;;4930654;28;20031;-57
2021/03/13 06:48:32;;;;;;;2.90;1.00;;;;;;;;;;4930169;28;20037;-57
2021/03/13 06:51:27;;;;;;;5.22;1.95;;;;;;;;;;4928593;28;20031;-58
2021/03/13 06:54:10;;;;;;;3.15;1.77;;;;;;;;;;4932001;28;20852;-59
2021/03/13 06:56:56;;;;;;;4.20;1.58;;;;;;;;;;4933234;28;20130;-58
2021/03/13 06:59:33;;;;;;;2.10;1.45;;;;;;;;;;4931798;28;20074;-57
2021/03/13 07:02:01;;;;;;;2.92;1.17;;;;;;;;;;4930211;28;20277;-58
2021/03/13 07:04:29;;;;;;;1.25;0.77;;;;;;;;;;4926574;28;20114;-58
2021/03/13 07:06:57;;;;;;;1.77;1.00;;;;;;;;;;4926455;28;20035;-58
2021/03/13 07:09:47;;;;;;;3.22;1.48;;;;;;;;;;4925144;28;20038;-58
2021/03/13 07:12:21;;;;;;;6.32;0.60;;;;;;;;;;4927783;28;20042;-59
2021/03/13 07:14:49;;;;;;;1.05;0.45;;;;;;;;;;4911881;28;20107;-58
2021/03/13 07:17:15;;;;;;;0.30;0.30;;;;;;;;;;4894662;28;22188;-58
2021/03/13 07:19:43;;;;;;;2.03;0.45;;;;;;;;;;4932494;28;20027;-59
2021/03/13 07:22:10;;;;;;;9.90;0.93;;;;;;;;;;4911448;28;20042;-57
2021/03/13 07:24:43;;;;;;;6.30;1.08;;;;;;;;;;4929902;28;20656;-58
2021/03/13 07:27:09;;;;;;;1.88;0.55;;;;;;;;;;4928910;28;20039;-58
2021/03/13 07:29:36;;;;;;;5.47;0.77;;;;;;;;;;4925747;28;20051;-58
2021/03/13 07:32:03;;;;;;;3.97;0.95;;;;;;;;;;4911266;28;20054;-58
2021/03/13 07:34:35;;;;;;;3.97;0.55;;;;;;;;;;4930902;28;20038;-58
2021/03/13 07:37:01;;;;;;;6.28;0.80;;;;;;;;;;4908975;28;20052;-59
2021/03/13 07:39:44;;;;;;;3.30;1.48;;;;;;;;;;4931087;28;20105;-58
2021/03/13 07:42:11;;;;;;;6.25;0.90;;;;;;;;;;4931265;28;20090;-59
2021/03/13 07:44:40;;;;;;;10.02;1.40;;;;;;;;;;4924804;28;20487;-57
2021/03/13 07:47:11;;;;;;;14.75;1.70;;;;;;;;;;4932259;28;21070;-58
2021/03/13 07:49:37;;;;;;;4.70;0.98;;;;;;;;;;4931603;28;20046;-57
2021/03/13 07:52:03;;;;;;;9.43;1.42;;;;;;;;;;4924998;28;20039;-58
2021/03/13 07:54:32;;;;;;;11.85;1.52;;;;;;;;;;4929624;28;20038;-58
2021/03/13 07:57:03;;;;;;;13.52;1.77;;;;;;;;;;4926847;28;20031;-58
2021/03/13 07:59:40;;;;;;;13.65;1.58;;;;;;;;;;4930833;28;20090;-58
2021/03/13 08:02:06;;;;;;;11.82;1.30;;;;;;;;;;4931944;28;20042;-60
2021/03/13 08:04:38;;;;;;;8.50;1.45;;;;;;;;;;4933290;28;20031;-58
2021/03/13 08:07:06;;;;;;;12.68;1.38;;;;;;;;;;4935174;28;20035;-58
2021/03/13 08:09:43;;;;;;;9.85;2.00;;;;;;;;;;4935800;28;20050;-58
2021/03/13 08:12:09;;;;;;;7.72;1.52;;;;;;;;;;4931217;28;20137;-58
2021/03/13 08:14:35;;;;;;;10.20;1.55;;;;;;;;;;4933338;28;20118;-58
2021/03/13 08:17:07;;;;;;;12.88;2.28;;;;;;;;;;4934003;28;20031;-58
2021/03/13 08:19:39;;;;;;;10.50;1.95;;;;;;;;;;4933284;28;20150;-58
2021/03/13 08:22:11;;;;;;;12.80;2.08;;;;;;;;;;4933544;28;20853;-59
2021/03/13 08:24:39;;;;;;;;;;;;;;;;;;4936039;28;20075;-59
2021/03/13 08:27:07;;;;;;;13.25;2.13;;;;;;;;;;4924483;28;19925;-60
2021/03/13 08:29:48;;;;;;;9.50;1.50;;;;;;;;;;4928293;28;20051;-59
2021/03/13 08:32:17;;;;;;;12.25;1.63;;;;;;;;;;4932515;28;21743;-59
2021/03/13 08:34:47;;;;;;;16.90;2.10;;;;;;;;;;4932244;28;20051;-59
2021/03/13 08:37:18;;;;;;;19.80;2.45;;;;;;;;;;4915275;28;20035;-59
2021/03/13 08:39:46;;;;;;;15.57;2.47;;;;;;;;;;4930353;28;20039;-60
2021/03/13 08:42:29;;;;;;;20.45;2.60;;;;;;;;;;4933837;28;20077;-59
2021/03/13 08:45:11;;;;;;;9.35;2.40;;;;;;;;;;4929956;28;20023;-59
2021/03/13 08:47:48;;;;;;;17.98;2.53;;;;;;;;;;4914168;28;20085;-59
2021/03/13 08:50:34;;;;;;;20.30;2.22;;;;;;;;;;4930550;28;20035;-66
2021/03/13 08:53:21;;;;;;;14.70;2.50;;;;;;;;;;4917468;28;20473;-60
2021/03/13 08:55:46;;;;;;;24.43;2.50;;;;;;;;;;4928145;28;20113;-59
2021/03/13 08:58:32;;;;;;;18.60;2.17;;;;;;;;;;4933197;28;21032;-59
2021/03/13 09:01:12;;;;;;;17.40;2.08;;;;;;;;;;4926776;28;21022;-58
2021/03/13 09:03:43;;;;;;;17.23;1.70;;;;;;;;;;4932442;28;20043;-59
2021/03/13 09:06:08;;;;;;;16.35;2.17;;;;;;;;;;4915679;28;20038;-59
2021/03/13 09:08:36;;;;;;;18.40;2.22;;;;;;;;;;4932065;28;20054;-59
2021/03/13 09:11:02;;;;;;;11.13;2.25;;;;;;;;;;4911151;28;20050;-59
2021/03/13 09:13:30;;;;;;;17.45;2.03;;;;;;;;;;4898946;28;20039;-59
2021/03/13 09:15:59;;;;;;;22.65;2.40;;;;;;;;;;4914817;28;20031;-58
2021/03/13 09:18:25;;;;;;;21.48;2.75;;;;;;;;;;4933986;28;20354;-59
2021/03/13 09:20:52;;;;;;;11.77;1.83;;;;;;;;;;4931251;28;20035;-60
2021/03/13 09:23:21;;;;;;;12.45;1.63;;;;;;;;;;4915521;28;20666;-60
2021/03/13 09:25:48;;;;;;;14.82;2.65;;;;;;;;;;4928112;28;20997;-60
2021/03/13 09:28:17;;;;;;;10.00;1.63;;;;;;;;;;4931575;28;20030;-61
2021/03/13 09:30:47;;;;;;;16.15;2.63;;;;;;;;;;4933812;28;20936;-58
2021/03/13 09:33:22;;;;;;;14.13;1.92;;;;;;;;;;4912341;28;20050;-59
2021/03/13 09:35:48;;;;;;;13.35;2.00;;;;;;;;;;4933137;28;20066;-60
2021/03/13 09:38:14;;;;;;;19.42;2.17;;;;;;;;;;4910319;29;20154;-59
2021/03/13 09:40:39;;;;;;;9.60;2.25;;;;;;;;;;4922488;28;20142;-61
2021/03/13 09:43:07;;;;;;;11.18;1.60;;;;;;;;;;4912930;29;20475;-60
2021/03/13 09:45:35;;;;;;;15.52;1.77;;;;;;;;;;4913900;28;20034;-61
2021/03/13 09:48:03;;;;;;;9.43;1.95;;;;;;;;;;4927991;28;20067;-61
2021/03/13 09:50:30;;;;;;;12.07;2.05;;;;;;;;;;4926519;28;20039;-60
2021/03/13 09:52:59;;;;;;;10.75;2.03;;;;;;;;;;4908402;29;20039;-60
2021/03/13 09:55:25;;;;;;;16.58;2.15;;;;;;;;;;4912713;29;20115;-60
2021/03/13 09:57:51;;;;;;;14.57;1.90;;;;;;;;;;4926748;28;20031;-60
2021/03/13 10:00:26;;;;;;;10.00;1.50;;;;;;;;;;4915257;29;20201;-62
2021/03/13 10:02:56;;;;;;;9.98;1.77;;;;;;;;;;4927159;28;20433;-59
2021/03/13 10:05:26;;;;;;;7.15;1.35;;;;;;;;;;4911312;29;20027;-60
2021/03/13 10:07:56;;;;;;;8.32;1.40;;;;;;;;;;4911790;29;20031;-61
2021/03/13 10:10:27;;;;;;;7.63;0.95;;;;;;;;;;4913779;28;20117;-61
2021/03/13 10:12:56;;;;;;;4.90;1.33;;;;;;;;;;4925821;28;20118;-60
2021/03/13 10:15:30;;;;;;;14.55;2.30;;;;;;;;;;4925635;28;20040;-60
2021/03/13 10:17:59;;;;;;;4.00;1.15;;;;;;;;;;4926167;28;20038;-59
2021/03/13 10:20:30;;;;;;;10.65;1.88;;;;;;;;;;4915478;29;20040;-62
2021/03/13 10:23:04;;;;;;;11.30;2.17;;;;;;;;;;4921427;28;20621;-62
2021/03/13 10:25:33;;;;;;;11.38;1.77;;;;;;;;;;4925679;28;20034;-60
2021/03/13 10:28:05;;;;;;;10.73;2.05;;;;;;;;;;4924291;28;20031;-60
2021/03/13 10:30:34;;;;;;;13.57;1.83;;;;;;;;;;4909285;29;20041;-60
2021/03/13 10:33:01;;;;;;;12.50;1.88;;;;;;;;;;4915418;29;20071;-61
2021/03/13 10:35:31;;;;;;;14.77;2.22;;;;;;;;;;4911677;29;20141;-62
2021/03/13 10:38:02;;;;;;;18.48;2.38;;;;;;;;;;4925373;28;20053;-59
2021/03/13 10:40:34;;;;;;;17.67;1.95;;;;;;;;;;4926401;28;20050;-60
2021/03/13 10:43:21;;;;;;;21.88;2.67;;;;;;;;;;4928212;28;20051;-60
2021/03/13 10:45:56;;;;;;;15.98;2.80;;;;;;;;;;4930901;28;20043;-61
2021/03/13 10:48:23;;;;;;;6.95;1.30;;;;;;;;;;4929556;28;20027;-61
2021/03/13 10:50:49;;;;;;;19.13;2.22;;;;;;;;;;4930793;28;20039;-61
2021/03/13 10:53:30;;;;;;;15.10;1.58;;;;;;;;;;4925428;28;20320;-59
2021/03/13 10:55:56;;;;;;;14.43;2.05;;;;;;;;;;4923489;28;20114;-60
2021/03/13 10:58:25;;;;;;;13.15;2.60;;;;;;;;;;4929358;28;20046;-60
2021/03/13 11:00:53;;;;;;;14.48;2.42;;;;;;;;;;4925513;28;20043;-60
2021/03/13 11:03:19;;;;;;;15.40;2.95;;;;;;;;;;4929875;28;20350;-60
2021/03/13 11:05:47;;;;;;;13.43;1.63;;;;;;;;;;4931721;28;22047;-60
2021/03/13 11:08:17;;;;;;;19.20;2.80;;;;;;;;;;4927906;28;20039;-62
2021/03/13 11:10:48;;;;;;;11.75;1.58;;;;;;;;;;4924496;28;21025;-60
2021/03/13 11:13:13;;;;;;;10.32;1.55;;;;;;;;;;4926925;28;20031;-60
2021/03/13 11:15:41;;;;;;;14.25;1.67;;;;;;;;;;4907853;28;20125;-60
2021/03/13 11:18:07;;;;;;;7.40;1.40;;;;;;;;;;4930710;28;20031;-61
2021/03/13 11:20:33;;;;;;;14.40;2.63;;;;;;;;;;4910811;28;20520;-61
2021/03/13 11:22:59;;;;;;;17.73;1.90;;;;;;;;;;4927222;28;20532;-60
2021/03/13 11:25:27;;;;;;;10.00;2.20;;;;;;;;;;4928118;28;20040;-59
2021/03/13 11:27:55;;;;;;;12.32;1.27;;;;;;;;;;4923029;28;20027;-58
2021/03/13 11:30:26;;;;;;;9.80;1.90;;;;;;;;;;4926182;28;20042;-59
2021/03/13 11:32:54;;;;;;;9.18;1.33;;;;;;;;;;4927910;28;20030;-60
2021/03/13 11:35:20;;;;;;;9.30;1.80;;;;;;;;;;4911754;28;20035;-60
2021/03/13 11:37:46;;;;;;;14.35;1.92;;;;;;;;;;4909722;28;20034;-60
2021/03/13 11:40:15;;;;;;;12.82;1.88;;;;;;;;;;4927670;28;20043;-61
2021/03/13 11:42:40;;;;;;;12.80;1.90;;;;;;;;;;4931514;28;20066;-61
2021/03/13 11:45:10;;;;;;;13.07;1.70;;;;;;;;;;4930878;28;20118;-61
2021/03/13 11:47:41;;;;;;;10.90;2.15;;;;;;;;;;4915716;28;20679;-63
2021/03/13 11:50:08;;;;;;;14.00;2.10;;;;;;;;;;4914637;28;21099;-62
2021/03/13 11:52:35;;;;;;;17.27;1.85;;;;;;;;;;4913219;28;20409;-61
2021/03/13 11:55:04;;;;;;;8.38;1.40;;;;;;;;;;4930315;28;20434;-61
2021/03/13 11:57:30;;;;;;;23.15;2.85;;;;;;;;;;4931169;28;20031;-61
2021/03/13 12:00:00;;;;;;;8.65;1.60;;;;;;;;;;4933322;28;20046;-60
2021/03/13 12:02:26;;;;;;;6.97;1.67;;;;;;;;;;4931898;28;20053;-61
2021/03/13 12:04:51;;;;;;;8.15;1.52;;;;;;;;;;4913867;28;21599;-60
2021/03/13 12:07:17;;;;;;;8.48;1.67;;;;;;;;;;4912537;28;20043;-61
2021/03/13 12:09:52;;;;;;;11.63;1.20;;;;;;;;;;4934446;28;20042;-59
2021/03/13 12:12:18;;;;;;;10.40;1.50;;;;;;;;;;4921827;28;20039;-60
2021/03/13 12:14:45;;;;;;;13.20;1.88;;;;;;;;;;4914940;28;20050;-60
2021/03/13 12:17:11;;;;;;;8.20;1.23;;;;;;;;;;4915162;28;20031;-60
2021/03/13 12:19:42;;;;;;;8.95;1.75;;;;;;;;;;4932704;28;20043;-60
2021/03/13 12:22:08;;;;;;;17.17;1.73;;;;;;;;;;4933657;28;20664;-62
2021/03/13 12:24:37;;;;;;;10.65;1.45;;;;;;;;;;4934181;28;20063;-63
2021/03/13 12:27:02;;;;;;;3.58;0.93;;;;;;;;;;4928031;28;20499;-62
2021/03/13 12:29:28;;;;;;;4.72;1.33;;;;;;;;;;4934069;28;20137;-60
2021/03/13 12:31:53;;;;;;;7.85;1.58;;;;;;;;;;4929274;28;20402;-60
2021/03/13 12:34:19;;;;;;;4.60;1.60;;;;;;;;;;4932034;28;20050;-62
2021/03/13 12:36:46;;;;;;;14.38;1.95;;;;;;;;;;4932475;28;20037;-61
2021/03/13 12:39:14;;;;;;;10.88;1.40;;;;;;;;;;4927303;28;20094;-63
2021/03/13 12:41:40;;;;;;;9.18;1.98;;;;;;;;;;4923477;28;20638;-60
2021/03/13 12:44:06;;;;;;;4.93;1.20;;;;;;;;;;4928982;28;20042;-61
2021/03/13 12:46:32;;;;;;;13.40;2.38;;;;;;;;;;4927691;28;20031;-60
2021/03/13 12:48:58;;;;;;;8.57;1.85;;;;;;;;;;4913674;29;20470;-61
2021/03/13 12:51:23;;;;;;;14.15;2.90;;;;;;;;;;4912387;29;20040;-61
2021/03/13 12:53:49;;;;;;;12.63;1.55;;;;;;;;;;4907707;29;20070;-61
2021/03/13 12:56:15;;;;;;;10.93;1.60;;;;;;;;;;4913480;29;20042;-61
2021/03/13 12:58:45;;;;;;;9.15;1.13;;;;;;;;;;4901704;29;20043;-60
2021/03/13 13:01:13;;;;;;;9.57;1.90;;;;;;;;;;4926721;28;20090;-60
2021/03/13 13:03:41;;;;;;;8.20;1.20;;;;;;;;;;4926734;28;20031;-60
2021/03/13 13:06:06;;;;;;;5.35;1.27;;;;;;;;;;4927489;28;20039;-62
2021/03/13 13:08:32;;;;;;;6.55;1.75;;;;;;;;;;4923861;28;20074;-61
2021/03/13 13:10:57;;;;;;;8.88;1.20;;;;;;;;;;4892163;29;20095;-59
2021/03/13 13:13:25;;;;;;;9.23;1.50;;;;;;;;;;4909823;29;20036;-58
2021/03/13 13:15:52;;;;;;;9.73;1.95;;;;;;;;;;4912745;28;20051;-58
2021/03/13 13:18:21;;;;;;;8.38;1.65;;;;;;;;;;4909089;29;20046;-60
2021/03/13 13:20:47;;;;;;;8.48;1.08;;;;;;;;;;4912840;29;20044;-60
2021/03/13 13:23:15;;;;;;;12.65;1.60;;;;;;;;;;4922334;28;20155;-61
2021/03/13 13:25:45;;;;;;;5.80;1.83;;;;;;;;;;4926916;28;20027;-59
2021/03/13 13:28:11;;;;;;;5.82;1.17;;;;;;;;;;4914747;29;22988;-60
2021/03/13 13:30:39;;;;;;;3.30;1.00;;;;;;;;;;4926739;28;20514;-60
2021/03/13 13:33:04;;;;;;;6.35;1.10;;;;;;;;;;4912692;29;20043;-61
2021/03/13 13:35:30;;;;;;;17.02;1.73;;;;;;;;;;4909403;29;20070;-59
2021/03/13 13:37:56;;;;;;;7.53;1.42;;;;;;;;;;4916920;28;20134;-59
2021/03/13 13:40:28;;;;;;;8.15;1.35;;;;;;;;;;4914803;28;20696;-62
2021/03/13 13:42:56;;;;;;;7.78;1.30;;;;;;;;;;4928250;28;20106;-61
2021/03/13 13:45:26;;;;;;;12.25;1.35;;;;;;;;;;4913134;28;20043;-61
2021/03/13 13:47:54;;;;;;;6.28;1.20;;;;;;;;;;4928755;28;20024;-60
2021/03/13 13:50:23;;;;;;;5.53;0.80;;;;;;;;;;4929597;28;20063;-61
2021/03/13 13:52:53;;;;;;;10.30;1.45;;;;;;;;;;4912746;28;20482;-62
2021/03/13 13:55:19;;;;;;;9.00;1.55;;;;;;;;;;4930712;28;20027;-62
2021/03/13 13:57:45;;;;;;;8.45;1.38;;;;;;;;;;4912347;28;21058;-62
2021/03/13 14:00:15;;;;;;;12.82;1.65;;;;;;;;;;4910987;28;20118;-61
2021/03/13 14:02:40;;;;;;;8.25;1.65;;;;;;;;;;4927280;28;20023;-60
2021/03/13 14:05:06;;;;;;;7.28;1.20;;;;;;;;;;4911588;28;20046;-61
2021/03/13 14:07:32;;;;;;;9.80;1.85;;;;;;;;;;4932634;28;20051;-58
2021/03/13 14:09:58;;;;;;;14.55;1.75;;;;;;;;;;4928116;28;20035;-60
2021/03/13 14:12:24;;;;;;;19.23;1.95;;;;;;;;;;4932816;28;20047;-61
2021/03/13 14:14:52;;;;;;;10.18;2.17;;;;;;;;;;4929326;28;20042;-57
2021/03/13 14:17:20;;;;;;;12.32;1.55;;;;;;;;;;4927719;28;20039;-60
2021/03/13 14:19:45;;;;;;;10.45;1.40;;;;;;;;;;4932271;28;20043;-58
2021/03/13 14:22:11;;;;;;;13.23;1.20;;;;;;;;;;4915185;28;20066;-58
2021/03/13 14:24:40;;;;;;;12.38;1.00;;;;;;;;;;4920209;28;20093;-57
2021/03/13 14:27:07;;;;;;;6.20;0.93;;;;;;;;;;4926469;28;20656;-59
2021/03/13 14:29:36;;;;;;;8.13;1.33;;;;;;;;;;4928908;28;20035;-58
2021/03/13 14:32:02;;;;;;;8.82;1.50;;;;;;;;;;4930555;28;20085;-58
2021/03/13 14:34:28;;;;;;;7.28;1.00;;;;;;;;;;4912665;28;20113;-60
2021/03/13 14:36:59;;;;;;;6.20;1.10;;;;;;;;;;4930203;28;20043;-59
2021/03/13 14:39:33;;;;;;;8.27;1.00;;;;;;;;;;4928637;28;20043;-59
2021/03/13 14:42:02;;;;;;;3.28;0.35;;;;;;;;;;4926910;28;20026;-59
2021/03/13 14:44:28;;;;;;;1.88;0.55;;;;;;;;;;4929665;28;20078;-58
2021/03/13 14:46:57;;;;;;;3.25;0.50;;;;;;;;;;4926576;28;20034;-60
2021/03/13 14:49:22;;;;;;;0.25;0.10;;;;;;;;;;4929608;28;20626;-61